sensor_id;sensor_type;location;lat;lon;timestamp;P1;P2;P0
72908;PMS5003;61051;62.624;17.950;2023-07-22T00:02:23;4;4;
72908;PMS5003;61051;62.624;17.950;2023-07-22T00:04:51;3;3;
72908;PMS5003;61051;62.624;17.950;2023-07-22T00:07:20;4;4;
72908;PMS5003;61051;62.624;17.950;2023-07-22T00:09:49;3;3;
72908;PMS5003;61051;62.624;17.950;2023-07-22T00:12:18;3;3;
72908;PMS5003;61051;62.624;17.950;2023-07-22T00:14:48;4;4;
72908;PMS5003;61051;62.624;17.950;2023-07-22T00:17:16;4;4;
72908;PMS5003;61051;62.624;17.950;2023-07-22T00:19:44;5;5;
72908;PMS5003;61051;62.624;17.950;2023-07-22T00:22:12;5;5;
72908;PMS5003;61051;62.624;17.950;2023-07-22T00:24:41;5;5;
72908;PMS5003;61051;62.624;17.950;2023-07-22T00:27:09;5;5;
72908;PMS5003;61051;62.624;17.950;2023-07-22T00:29:37;5;5;
72908;PMS5003;61051;62.624;17.950;2023-07-22T00:32:07;6;5;
72908;PMS5003;61051;62.624;17.950;2023-07-22T00:34:36;5;4;
72908;PMS5003;61051;62.624;17.950;2023-07-22T00:37:04;4;4;
72908;PMS5003;61051;62.624;17.950;2023-07-22T00:39:32;6;6;
72908;PMS5003;61051;62.624;17.950;2023-07-22T00:42:01;4;4;
72908;PMS5003;61051;62.624;17.950;2023-07-22T00:44:29;5;4;
72908;PMS5003;61051;62.624;17.950;2023-07-22T00:46:57;6;6;
72908;PMS5003;61051;62.624;17.950;2023-07-22T00:49:25;4;4;
72908;PMS5003;61051;62.624;17.950;2023-07-22T00:51:56;6;5;
72908;PMS5003;61051;62.624;17.950;2023-07-22T00:54:28;4;4;
72908;PMS5003;61051;62.624;17.950;2023-07-22T00:56:58;4;4;
72908;PMS5003;61051;62.624;17.950;2023-07-22T00:59:26;5;5;
72908;PMS5003;61051;62.624;17.950;2023-07-22T01:01:56;6;6;
72908;PMS5003;61051;62.624;17.950;2023-07-22T01:04:25;6;6;
72908;PMS5003;61051;62.624;17.950;2023-07-22T01:06:53;4;4;
72908;PMS5003;61051;62.624;17.950;2023-07-22T01:09:23;8;5;
72908;PMS5003;61051;62.624;17.950;2023-07-22T01:11:52;4;4;
72908;PMS5003;61051;62.624;17.950;2023-07-22T01:14:21;4;4;
72908;PMS5003;61051;62.624;17.950;2023-07-22T01:16:50;5;5;
72908;PMS5003;61051;62.624;17.950;2023-07-22T01:19:19;4;4;
72908;PMS5003;61051;62.624;17.950;2023-07-22T01:21:48;3;3;
72908;PMS5003;61051;62.624;17.950;2023-07-22T01:24:19;5;4;
72908;PMS5003;61051;62.624;17.950;2023-07-22T01:26:49;5;5;
72908;PMS5003;61051;62.624;17.950;2023-07-22T01:29:17;6;6;
72908;PMS5003;61051;62.624;17.950;2023-07-22T01:31:47;7;7;
72908;PMS5003;61051;62.624;17.950;2023-07-22T01:34:15;5;5;
72908;PMS5003;61051;62.624;17.950;2023-07-22T01:36:44;4;4;
72908;PMS5003;61051;62.624;17.950;2023-07-22T01:39:14;3;3;
72908;PMS5003;61051;62.624;17.950;2023-07-22T01:41:42;5;5;
72908;PMS5003;61051;62.624;17.950;2023-07-22T01:44:12;6;6;
72908;PMS5003;61051;62.624;17.950;2023-07-22T01:46:40;4;4;
72908;PMS5003;61051;62.624;17.950;2023-07-22T01:49:10;5;5;
72908;PMS5003;61051;62.624;17.950;2023-07-22T01:51:39;3;3;
72908;PMS5003;61051;62.624;17.950;2023-07-22T01:54:07;4;4;
72908;PMS5003;61051;62.624;17.950;2023-07-22T01:56:35;5;5;
72908;PMS5003;61051;62.624;17.950;2023-07-22T01:59:03;5;5;
72908;PMS5003;61051;62.624;17.950;2023-07-22T02:01:32;6;6;
72908;PMS5003;61051;62.624;17.950;2023-07-22T02:04:00;7;7;
72908;PMS5003;61051;62.624;17.950;2023-07-22T02:06:28;4;4;
72908;PMS5003;61051;62.624;17.950;2023-07-22T02:08:57;6;6;
72908;PMS5003;61051;62.624;17.950;2023-07-22T02:11:25;4;4;
72908;PMS5003;61051;62.624;17.950;2023-07-22T02:13:53;6;6;
72908;PMS5003;61051;62.624;17.950;2023-07-22T02:16:22;8;7;
72908;PMS5003;61051;62.624;17.950;2023-07-22T02:18:50;5;5;
72908;PMS5003;61051;62.624;17.950;2023-07-22T02:21:19;5;5;
72908;PMS5003;61051;62.624;17.950;2023-07-22T02:23:48;7;7;
72908;PMS5003;61051;62.624;17.950;2023-07-22T02:26:17;4;4;
72908;PMS5003;61051;62.624;17.950;2023-07-22T02:28:45;5;5;
72908;PMS5003;61051;62.624;17.950;2023-07-22T02:31:13;4;4;
72908;PMS5003;61051;62.624;17.950;2023-07-22T02:33:42;7;5;
72908;PMS5003;61051;62.624;17.950;2023-07-22T02:36:10;7;6;
72908;PMS5003;61051;62.624;17.950;2023-07-22T02:38:38;5;5;
72908;PMS5003;61051;62.624;17.950;2023-07-22T02:41:07;6;6;
72908;PMS5003;61051;62.624;17.950;2023-07-22T02:43:36;6;5;
72908;PMS5003;61051;62.624;17.950;2023-07-22T02:46:05;5;4;
72908;PMS5003;61051;62.624;17.950;2023-07-22T02:48:34;5;5;
72908;PMS5003;61051;62.624;17.950;2023-07-22T02:51:03;4;4;
72908;PMS5003;61051;62.624;17.950;2023-07-22T02:53:32;5;5;
72908;PMS5003;61051;62.624;17.950;2023-07-22T02:56:01;7;6;
72908;PMS5003;61051;62.624;17.950;2023-07-22T02:58:29;5;5;
72908;PMS5003;61051;62.624;17.950;2023-07-22T03:00:57;5;5;
72908;PMS5003;61051;62.624;17.950;2023-07-22T03:03:26;4;4;
72908;PMS5003;61051;62.624;17.950;2023-07-22T03:05:56;5;5;
72908;PMS5003;61051;62.624;17.950;2023-07-22T03:08:24;4;4;
72908;PMS5003;61051;62.624;17.950;2023-07-22T03:10:52;6;6;
72908;PMS5003;61051;62.624;17.950;2023-07-22T03:13:21;5;5;
72908;PMS5003;61051;62.624;17.950;2023-07-22T03:15:49;3;3;
72908;PMS5003;61051;62.624;17.950;2023-07-22T03:18:17;5;5;
72908;PMS5003;61051;62.624;17.950;2023-07-22T03:20:46;6;6;
72908;PMS5003;61051;62.624;17.950;2023-07-22T03:23:14;6;6;
72908;PMS5003;61051;62.624;17.950;2023-07-22T03:25:42;5;4;
72908;PMS5003;61051;62.624;17.950;2023-07-22T03:28:11;5;5;
72908;PMS5003;61051;62.624;17.950;2023-07-22T03:30:39;3;3;
72908;PMS5003;61051;62.624;17.950;2023-07-22T03:33:08;4;4;
72908;PMS5003;61051;62.624;17.950;2023-07-22T03:35:36;5;5;
72908;PMS5003;61051;62.624;17.950;2023-07-22T03:38:04;5;5;
72908;PMS5003;61051;62.624;17.950;2023-07-22T03:40:32;5;5;
72908;PMS5003;61051;62.624;17.950;2023-07-22T03:43:01;4;4;
72908;PMS5003;61051;62.624;17.950;2023-07-22T03:45:29;3;3;
72908;PMS5003;61051;62.624;17.950;2023-07-22T03:47:58;5;5;
72908;PMS5003;61051;62.624;17.950;2023-07-22T03:50:27;4;4;
72908;PMS5003;61051;62.624;17.950;2023-07-22T03:52:56;5;5;
72908;PMS5003;61051;62.624;17.950;2023-07-22T03:55:24;6;5;
72908;PMS5003;61051;62.624;17.950;2023-07-22T03:57:52;5;5;
72908;PMS5003;61051;62.624;17.950;2023-07-22T04:03:17;6;5;
72908;PMS5003;61051;62.624;17.950;2023-07-22T04:05:52;7;7;
72908;PMS5003;61051;62.624;17.950;2023-07-22T04:08:22;7;7;
72908;PMS5003;61051;62.624;17.950;2023-07-22T04:10:51;7;7;
72908;PMS5003;61051;62.624;17.950;2023-07-22T04:13:20;7;7;
72908;PMS5003;61051;62.624;17.950;2023-07-22T04:15:50;8;8;
72908;PMS5003;61051;62.624;17.950;2023-07-22T04:18:19;8;8;
72908;PMS5003;61051;62.624;17.950;2023-07-22T04:20:54;10;10;
72908;PMS5003;61051;62.624;17.950;2023-07-22T04:23:24;7;5;
72908;PMS5003;61051;62.624;17.950;2023-07-22T04:25:52;8;8;
72908;PMS5003;61051;62.624;17.950;2023-07-22T04:28:20;6;6;
72908;PMS5003;61051;62.624;17.950;2023-07-22T04:30:55;8;8;
72908;PMS5003;61051;62.624;17.950;2023-07-22T04:33:24;8;8;
72908;PMS5003;61051;62.624;17.950;2023-07-22T04:35:53;9;8;
72908;PMS5003;61051;62.624;17.950;2023-07-22T04:38:22;8;8;
72908;PMS5003;61051;62.624;17.950;2023-07-22T04:40:50;10;10;
72908;PMS5003;61051;62.624;17.950;2023-07-22T04:43:18;12;11;
72908;PMS5003;61051;62.624;17.950;2023-07-22T04:45:46;9;9;
72908;PMS5003;61051;62.624;17.950;2023-07-22T04:48:15;10;9;
72908;PMS5003;61051;62.624;17.950;2023-07-22T04:50:43;8;7;
72908;PMS5003;61051;62.624;17.950;2023-07-22T04:53:11;5;5;
72908;PMS5003;61051;62.624;17.950;2023-07-22T04:55:39;5;5;
72908;PMS5003;61051;62.624;17.950;2023-07-22T04:58:09;7;4;
72908;PMS5003;61051;62.624;17.950;2023-07-22T05:00:37;4;4;
72908;PMS5003;61051;62.624;17.950;2023-07-22T05:03:06;4;4;
72908;PMS5003;61051;62.624;17.950;2023-07-22T05:05:36;5;5;
72908;PMS5003;61051;62.624;17.950;2023-07-22T05:08:04;3;3;
72908;PMS5003;61051;62.624;17.950;2023-07-22T05:10:34;5;5;
72908;PMS5003;61051;62.624;17.950;2023-07-22T05:13:02;5;4;
72908;PMS5003;61051;62.624;17.950;2023-07-22T05:15:32;6;6;
72908;PMS5003;61051;62.624;17.950;2023-07-22T05:18:00;6;5;
72908;PMS5003;61051;62.624;17.950;2023-07-22T05:20:28;5;5;
72908;PMS5003;61051;62.624;17.950;2023-07-22T05:22:56;6;6;
72908;PMS5003;61051;62.624;17.950;2023-07-22T05:25:26;10;8;
72908;PMS5003;61051;62.624;17.950;2023-07-22T05:27:54;9;9;
72908;PMS5003;61051;62.624;17.950;2023-07-22T05:30:22;5;5;
72908;PMS5003;61051;62.624;17.950;2023-07-22T05:32:51;10;8;
72908;PMS5003;61051;62.624;17.950;2023-07-22T05:35:21;9;7;
72908;PMS5003;61051;62.624;17.950;2023-07-22T05:37:49;8;7;
72908;PMS5003;61051;62.624;17.950;2023-07-22T05:40:17;6;6;
72908;PMS5003;61051;62.624;17.950;2023-07-22T05:42:45;7;7;
72908;PMS5003;61051;62.624;17.950;2023-07-22T05:45:13;9;6;
72908;PMS5003;61051;62.624;17.950;2023-07-22T05:47:41;7;7;
72908;PMS5003;61051;62.624;17.950;2023-07-22T05:50:10;8;8;
72908;PMS5003;61051;62.624;17.950;2023-07-22T05:52:38;7;7;
72908;PMS5003;61051;62.624;17.950;2023-07-22T05:55:06;8;8;
72908;PMS5003;61051;62.624;17.950;2023-07-22T05:57:36;8;8;
72908;PMS5003;61051;62.624;17.950;2023-07-22T06:00:05;6;6;
72908;PMS5003;61051;62.624;17.950;2023-07-22T06:02:34;7;7;
72908;PMS5003;61051;62.624;17.950;2023-07-22T06:05:02;5;5;
72908;PMS5003;61051;62.624;17.950;2023-07-22T06:07:32;8;8;
72908;PMS5003;61051;62.624;17.950;2023-07-22T06:10:00;10;8;
72908;PMS5003;61051;62.624;17.950;2023-07-22T06:12:28;9;9;
72908;PMS5003;61051;62.624;17.950;2023-07-22T06:14:56;9;8;
72908;PMS5003;61051;62.624;17.950;2023-07-22T06:17:25;7;7;
72908;PMS5003;61051;62.624;17.950;2023-07-22T06:19:53;7;7;
72908;PMS5003;61051;62.624;17.950;2023-07-22T06:22:21;7;7;
72908;PMS5003;61051;62.624;17.950;2023-07-22T06:24:49;6;6;
72908;PMS5003;61051;62.624;17.950;2023-07-22T06:27:17;9;7;
72908;PMS5003;61051;62.624;17.950;2023-07-22T06:29:47;8;7;
72908;PMS5003;61051;62.624;17.950;2023-07-22T06:32:15;10;7;
72908;PMS5003;61051;62.624;17.950;2023-07-22T06:34:44;6;6;
72908;PMS5003;61051;62.624;17.950;2023-07-22T06:37:12;5;5;
72908;PMS5003;61051;62.624;17.950;2023-07-22T06:39:40;8;8;
72908;PMS5003;61051;62.624;17.950;2023-07-22T06:42:08;7;7;
72908;PMS5003;61051;62.624;17.950;2023-07-22T06:44:36;7;7;
72908;PMS5003;61051;62.624;17.950;2023-07-22T06:47:05;6;6;
72908;PMS5003;61051;62.624;17.950;2023-07-22T06:49:34;6;6;
72908;PMS5003;61051;62.624;17.950;2023-07-22T06:52:03;7;7;
72908;PMS5003;61051;62.624;17.950;2023-07-22T06:54:32;6;5;
72908;PMS5003;61051;62.624;17.950;2023-07-22T06:57:00;6;6;
72908;PMS5003;61051;62.624;17.950;2023-07-22T06:59:29;6;6;
72908;PMS5003;61051;62.624;17.950;2023-07-22T07:01:57;7;6;
72908;PMS5003;61051;62.624;17.950;2023-07-22T07:04:25;6;6;
72908;PMS5003;61051;62.624;17.950;2023-07-22T07:06:55;8;5;
72908;PMS5003;61051;62.624;17.950;2023-07-22T07:09:23;8;6;
72908;PMS5003;61051;62.624;17.950;2023-07-22T07:11:51;6;6;
72908;PMS5003;61051;62.624;17.950;2023-07-22T07:14:19;5;5;
72908;PMS5003;61051;62.624;17.950;2023-07-22T07:16:47;8;7;
72908;PMS5003;61051;62.624;17.950;2023-07-22T07:19:16;8;7;
72908;PMS5003;61051;62.624;17.950;2023-07-22T07:21:44;8;7;
72908;PMS5003;61051;62.624;17.950;2023-07-22T07:24:12;5;5;
72908;PMS5003;61051;62.624;17.950;2023-07-22T07:26:40;7;7;
72908;PMS5003;61051;62.624;17.950;2023-07-22T07:29:10;6;6;
72908;PMS5003;61051;62.624;17.950;2023-07-22T07:31:38;5;5;
72908;PMS5003;61051;62.624;17.950;2023-07-22T07:34:08;6;4;
72908;PMS5003;61051;62.624;17.950;2023-07-22T07:36:36;5;5;
72908;PMS5003;61051;62.624;17.950;2023-07-22T07:39:05;4;4;
72908;PMS5003;61051;62.624;17.950;2023-07-22T07:41:34;8;6;
72908;PMS5003;61051;62.624;17.950;2023-07-22T07:44:02;5;4;
72908;PMS5003;61051;62.624;17.950;2023-07-22T07:46:32;7;6;
72908;PMS5003;61051;62.624;17.950;2023-07-22T07:49:02;8;8;
72908;PMS5003;61051;62.624;17.950;2023-07-22T07:51:31;6;6;
72908;PMS5003;61051;62.624;17.950;2023-07-22T07:53:59;7;7;
72908;PMS5003;61051;62.624;17.950;2023-07-22T07:56:28;6;6;
72908;PMS5003;61051;62.624;17.950;2023-07-22T07:58:56;6;5;
72908;PMS5003;61051;62.624;17.950;2023-07-22T08:01:26;4;4;
72908;PMS5003;61051;62.624;17.950;2023-07-22T08:03:54;4;4;
72908;PMS5003;61051;62.624;17.950;2023-07-22T08:06:22;6;6;
72908;PMS5003;61051;62.624;17.950;2023-07-22T08:08:50;4;4;
72908;PMS5003;61051;62.624;17.950;2023-07-22T08:11:18;5;5;
72908;PMS5003;61051;62.624;17.950;2023-07-22T08:13:46;8;6;
72908;PMS5003;61051;62.624;17.950;2023-07-22T08:16:14;5;5;
72908;PMS5003;61051;62.624;17.950;2023-07-22T08:18:43;6;6;
72908;PMS5003;61051;62.624;17.950;2023-07-22T08:21:11;5;5;
72908;PMS5003;61051;62.624;17.950;2023-07-22T08:23:39;4;4;
72908;PMS5003;61051;62.624;17.950;2023-07-22T08:26:07;5;5;
72908;PMS5003;61051;62.624;17.950;2023-07-22T08:28:35;5;5;
72908;PMS5003;61051;62.624;17.950;2023-07-22T08:31:04;7;5;
72908;PMS5003;61051;62.624;17.950;2023-07-22T08:33:34;4;4;
72908;PMS5003;61051;62.624;17.950;2023-07-22T08:36:04;7;7;
72908;PMS5003;61051;62.624;17.950;2023-07-22T08:38:33;6;5;
72908;PMS5003;61051;62.624;17.950;2023-07-22T08:41:01;4;4;
72908;PMS5003;61051;62.624;17.950;2023-07-22T08:43:31;5;5;
72908;PMS5003;61051;62.624;17.950;2023-07-22T08:46:05;4;4;
72908;PMS5003;61051;62.624;17.950;2023-07-22T08:48:34;7;7;
72908;PMS5003;61051;62.624;17.950;2023-07-22T08:51:09;6;4;
72908;PMS5003;61051;62.624;17.950;2023-07-22T08:53:41;6;6;
72908;PMS5003;61051;62.624;17.950;2023-07-22T08:56:11;7;6;
72908;PMS5003;61051;62.624;17.950;2023-07-22T08:58:39;6;6;
72908;PMS5003;61051;62.624;17.950;2023-07-22T09:01:10;5;5;
72908;PMS5003;61051;62.624;17.950;2023-07-22T09:03:38;4;4;
72908;PMS5003;61051;62.624;17.950;2023-07-22T09:06:08;5;4;
72908;PMS5003;61051;62.624;17.950;2023-07-22T09:08:38;4;4;
72908;PMS5003;61051;62.624;17.950;2023-07-22T09:11:06;5;5;
72908;PMS5003;61051;62.624;17.950;2023-07-22T09:13:34;6;6;
72908;PMS5003;61051;62.624;17.950;2023-07-22T09:16:05;4;4;
72908;PMS5003;61051;62.624;17.950;2023-07-22T09:18:34;5;5;
72908;PMS5003;61051;62.624;17.950;2023-07-22T09:21:02;6;6;
72908;PMS5003;61051;62.624;17.950;2023-07-22T09:23:32;5;5;
72908;PMS5003;61051;62.624;17.950;2023-07-22T09:26:09;3;3;
72908;PMS5003;61051;62.624;17.950;2023-07-22T09:28:54;5;5;
72908;PMS5003;61051;62.624;17.950;2023-07-22T09:31:24;4;4;
72908;PMS5003;61051;62.624;17.950;2023-07-22T09:33:54;7;7;
72908;PMS5003;61051;62.624;17.950;2023-07-22T09:36:22;5;4;
72908;PMS5003;61051;62.624;17.950;2023-07-22T09:39:05;3;3;
72908;PMS5003;61051;62.624;17.950;2023-07-22T09:41:41;4;4;
72908;PMS5003;61051;62.624;17.950;2023-07-22T09:44:10;4;4;
72908;PMS5003;61051;62.624;17.950;2023-07-22T09:46:38;3;2;
72908;PMS5003;61051;62.624;17.950;2023-07-22T09:49:07;4;4;
72908;PMS5003;61051;62.624;17.950;2023-07-22T09:51:37;4;4;
72908;PMS5003;61051;62.624;17.950;2023-07-22T09:54:07;3;3;
72908;PMS5003;61051;62.624;17.950;2023-07-22T09:56:46;2;2;
72908;PMS5003;61051;62.624;17.950;2023-07-22T09:59:18;3;3;
72908;PMS5003;61051;62.624;17.950;2023-07-22T10:03:19;2;2;
72908;PMS5003;61051;62.624;17.950;2023-07-22T10:05:48;4;4;
72908;PMS5003;61051;62.624;17.950;2023-07-22T10:08:18;3;3;
72908;PMS5003;61051;62.624;17.950;2023-07-22T10:10:51;4;4;
72908;PMS5003;61051;62.624;17.950;2023-07-22T10:13:24;4;4;
72908;PMS5003;61051;62.624;17.950;2023-07-22T10:15:53;3;3;
72908;PMS5003;61051;62.624;17.950;2023-07-22T10:18:23;2;2;
72908;PMS5003;61051;62.624;17.950;2023-07-22T10:20:53;4;3;
72908;PMS5003;61051;62.624;17.950;2023-07-22T10:23:23;4;3;
72908;PMS5003;61051;62.624;17.950;2023-07-22T10:25:55;2;2;
72908;PMS5003;61051;62.624;17.950;2023-07-22T10:28:26;2;2;
72908;PMS5003;61051;62.624;17.950;2023-07-22T10:30:56;4;2;
72908;PMS5003;61051;62.624;17.950;2023-07-22T10:33:25;2;2;
72908;PMS5003;61051;62.624;17.950;2023-07-22T10:36:02;0;0;
72908;PMS5003;61051;62.624;17.950;2023-07-22T10:38:32;1;1;
72908;PMS5003;61051;62.624;17.950;2023-07-22T10:41:10;2;2;
72908;PMS5003;61051;62.624;17.950;2023-07-22T10:43:40;1;1;
72908;PMS5003;61051;62.624;17.950;2023-07-22T10:46:10;1;1;
72908;PMS5003;61051;62.624;17.950;2023-07-22T10:48:40;2;2;
72908;PMS5003;61051;62.624;17.950;2023-07-22T10:51:10;2;2;
72908;PMS5003;61051;62.624;17.950;2023-07-22T10:53:40;0;0;
72908;PMS5003;61051;62.624;17.950;2023-07-22T10:56:11;0;0;
72908;PMS5003;61051;62.624;17.950;2023-07-22T10:58:57;2;2;
72908;PMS5003;61051;62.624;17.950;2023-07-22T11:01:35;1;1;
72908;PMS5003;61051;62.624;17.950;2023-07-22T11:04:06;3;3;
72908;PMS5003;61051;62.624;17.950;2023-07-22T11:06:37;1;1;
72908;PMS5003;61051;62.624;17.950;2023-07-22T11:09:06;1;1;
72908;PMS5003;61051;62.624;17.950;2023-07-22T11:11:35;2;2;
72908;PMS5003;61051;62.624;17.950;2023-07-22T11:14:15;2;2;
72908;PMS5003;61051;62.624;17.950;2023-07-22T11:16:45;1;1;
72908;PMS5003;61051;62.624;17.950;2023-07-22T11:19:14;1;1;
72908;PMS5003;61051;62.624;17.950;2023-07-22T11:21:44;1;1;
72908;PMS5003;61051;62.624;17.950;2023-07-22T11:24:14;1;1;
72908;PMS5003;61051;62.624;17.950;2023-07-22T11:26:44;3;2;
72908;PMS5003;61051;62.624;17.950;2023-07-22T11:29:14;1;1;
72908;PMS5003;61051;62.624;17.950;2023-07-22T11:31:44;3;1;
72908;PMS5003;61051;62.624;17.950;2023-07-22T11:34:13;1;1;
72908;PMS5003;61051;62.624;17.950;2023-07-22T11:36:43;3;1;
72908;PMS5003;61051;62.624;17.950;2023-07-22T11:39:13;0;0;
72908;PMS5003;61051;62.624;17.950;2023-07-22T11:41:43;5;3;
72908;PMS5003;61051;62.624;17.950;2023-07-22T11:44:13;2;2;
72908;PMS5003;61051;62.624;17.950;2023-07-22T11:46:47;2;2;
72908;PMS5003;61051;62.624;17.950;2023-07-22T11:49:23;1;1;
72908;PMS5003;61051;62.624;17.950;2023-07-22T11:51:53;1;1;
72908;PMS5003;61051;62.624;17.950;2023-07-22T11:54:23;1;1;
72908;PMS5003;61051;62.624;17.950;2023-07-22T11:56:53;1;1;
72908;PMS5003;61051;62.624;17.950;2023-07-22T11:59:33;0;0;
72908;PMS5003;61051;62.624;17.950;2023-07-22T12:02:03;0;0;
72908;PMS5003;61051;62.624;17.950;2023-07-22T12:04:33;2;2;
72908;PMS5003;61051;62.624;17.950;2023-07-22T12:07:02;1;1;
72908;PMS5003;61051;62.624;17.950;2023-07-22T12:09:32;0;0;
72908;PMS5003;61051;62.624;17.950;2023-07-22T12:12:00;4;4;
72908;PMS5003;61051;62.624;17.950;2023-07-22T12:14:35;2;2;
72908;PMS5003;61051;62.624;17.950;2023-07-22T12:17:07;3;2;
72908;PMS5003;61051;62.624;17.950;2023-07-22T12:19:36;2;2;
72908;PMS5003;61051;62.624;17.950;2023-07-22T12:22:04;3;3;
72908;PMS5003;61051;62.624;17.950;2023-07-22T12:24:32;1;1;
72908;PMS5003;61051;62.624;17.950;2023-07-22T12:27:02;1;1;
72908;PMS5003;61051;62.624;17.950;2023-07-22T12:29:32;1;1;
72908;PMS5003;61051;62.624;17.950;2023-07-22T12:32:01;1;1;
72908;PMS5003;61051;62.624;17.950;2023-07-22T12:34:29;1;1;
72908;PMS5003;61051;62.624;17.950;2023-07-22T12:36:57;2;2;
72908;PMS5003;61051;62.624;17.950;2023-07-22T12:39:25;6;4;
72908;PMS5003;61051;62.624;17.950;2023-07-22T12:41:53;2;2;
72908;PMS5003;61051;62.624;17.950;2023-07-22T12:44:23;3;3;
72908;PMS5003;61051;62.624;17.950;2023-07-22T12:46:51;1;1;
72908;PMS5003;61051;62.624;17.950;2023-07-22T12:49:19;2;1;
72908;PMS5003;61051;62.624;17.950;2023-07-22T12:51:47;1;1;
72908;PMS5003;61051;62.624;17.950;2023-07-22T12:54:14;2;2;
72908;PMS5003;61051;62.624;17.950;2023-07-22T12:56:42;0;0;
72908;PMS5003;61051;62.624;17.950;2023-07-22T12:59:10;1;1;
72908;PMS5003;61051;62.624;17.950;2023-07-22T13:01:38;2;2;
72908;PMS5003;61051;62.624;17.950;2023-07-22T13:04:06;1;1;
72908;PMS5003;61051;62.624;17.950;2023-07-22T13:06:36;1;1;
72908;PMS5003;61051;62.624;17.950;2023-07-22T13:09:03;3;3;
72908;PMS5003;61051;62.624;17.950;2023-07-22T13:11:31;2;2;
72908;PMS5003;61051;62.624;17.950;2023-07-22T13:13:59;2;2;
72908;PMS5003;61051;62.624;17.950;2023-07-22T13:16:27;3;3;
72908;PMS5003;61051;62.624;17.950;2023-07-22T13:18:55;3;2;
72908;PMS5003;61051;62.624;17.950;2023-07-22T13:21:25;2;2;
72908;PMS5003;61051;62.624;17.950;2023-07-22T13:23:52;4;4;
72908;PMS5003;61051;62.624;17.950;2023-07-22T13:26:20;3;3;
72908;PMS5003;61051;62.624;17.950;2023-07-22T13:28:50;3;3;
72908;PMS5003;61051;62.624;17.950;2023-07-22T13:31:19;3;3;
72908;PMS5003;61051;62.624;17.950;2023-07-22T13:33:47;3;3;
72908;PMS5003;61051;62.624;17.950;2023-07-22T13:36:15;4;4;
72908;PMS5003;61051;62.624;17.950;2023-07-22T13:38:43;3;3;
72908;PMS5003;61051;62.624;17.950;2023-07-22T13:41:11;4;4;
72908;PMS5003;61051;62.624;17.950;2023-07-22T13:43:39;2;2;
72908;PMS5003;61051;62.624;17.950;2023-07-22T13:46:07;3;3;
72908;PMS5003;61051;62.624;17.950;2023-07-22T13:48:35;3;3;
72908;PMS5003;61051;62.624;17.950;2023-07-22T13:51:02;4;4;
72908;PMS5003;61051;62.624;17.950;2023-07-22T13:53:30;5;4;
72908;PMS5003;61051;62.624;17.950;2023-07-22T13:55:58;5;4;
72908;PMS5003;61051;62.624;17.950;2023-07-22T13:58:26;3;3;
72908;PMS5003;61051;62.624;17.950;2023-07-22T14:00:56;4;4;
72908;PMS5003;61051;62.624;17.950;2023-07-22T14:03:25;3;3;
72908;PMS5003;61051;62.624;17.950;2023-07-22T14:05:54;3;3;
72908;PMS5003;61051;62.624;17.950;2023-07-22T14:08:23;3;3;
72908;PMS5003;61051;62.624;17.950;2023-07-22T14:10:51;4;4;
72908;PMS5003;61051;62.624;17.950;2023-07-22T14:13:21;7;4;
72908;PMS5003;61051;62.624;17.950;2023-07-22T14:15:49;4;4;
72908;PMS5003;61051;62.624;17.950;2023-07-22T14:18:17;2;2;
72908;PMS5003;61051;62.624;17.950;2023-07-22T14:20:46;2;2;
72908;PMS5003;61051;62.624;17.950;2023-07-22T14:23:14;1;1;
72908;PMS5003;61051;62.624;17.950;2023-07-22T14:25:42;1;1;
72908;PMS5003;61051;62.624;17.950;2023-07-22T14:28:10;3;3;
72908;PMS5003;61051;62.624;17.950;2023-07-22T14:30:38;2;2;
72908;PMS5003;61051;62.624;17.950;2023-07-22T14:33:06;1;1;
72908;PMS5003;61051;62.624;17.950;2023-07-22T14:35:34;1;1;
72908;PMS5003;61051;62.624;17.950;2023-07-22T14:38:02;0;0;
72908;PMS5003;61051;62.624;17.950;2023-07-22T14:40:30;1;1;
72908;PMS5003;61051;62.624;17.950;2023-07-22T14:42:58;2;2;
72908;PMS5003;61051;62.624;17.950;2023-07-22T14:45:26;1;1;
72908;PMS5003;61051;62.624;17.950;2023-07-22T14:47:54;0;0;
72908;PMS5003;61051;62.624;17.950;2023-07-22T14:50:24;1;1;
72908;PMS5003;61051;62.624;17.950;2023-07-22T14:52:53;0;0;
72908;PMS5003;61051;62.624;17.950;2023-07-22T14:55:23;1;1;
72908;PMS5003;61051;62.624;17.950;2023-07-22T14:57:51;0;0;
72908;PMS5003;61051;62.624;17.950;2023-07-22T15:00:19;0;0;
72908;PMS5003;61051;62.624;17.950;2023-07-22T15:02:47;3;1;
72908;PMS5003;61051;62.624;17.950;2023-07-22T15:05:16;1;1;
72908;PMS5003;61051;62.624;17.950;2023-07-22T15:07:44;1;1;
72908;PMS5003;61051;62.624;17.950;2023-07-22T15:10:12;2;2;
72908;PMS5003;61051;62.624;17.950;2023-07-22T15:12:40;1;1;
72908;PMS5003;61051;62.624;17.950;2023-07-22T15:15:11;2;2;
72908;PMS5003;61051;62.624;17.950;2023-07-22T15:17:40;0;0;
72908;PMS5003;61051;62.624;17.950;2023-07-22T15:20:08;1;1;
72908;PMS5003;61051;62.624;17.950;2023-07-22T15:22:38;0;0;
72908;PMS5003;61051;62.624;17.950;2023-07-22T15:25:06;0;0;
72908;PMS5003;61051;62.624;17.950;2023-07-22T15:27:36;1;1;
72908;PMS5003;61051;62.624;17.950;2023-07-22T15:30:04;0;0;
72908;PMS5003;61051;62.624;17.950;2023-07-22T15:32:34;3;2;
72908;PMS5003;61051;62.624;17.950;2023-07-22T15:35:03;1;1;
72908;PMS5003;61051;62.624;17.950;2023-07-22T15:37:33;1;1;
72908;PMS5003;61051;62.624;17.950;2023-07-22T15:40:01;1;1;
72908;PMS5003;61051;62.624;17.950;2023-07-22T15:42:31;0;0;
72908;PMS5003;61051;62.624;17.950;2023-07-22T15:44:59;1;1;
72908;PMS5003;61051;62.624;17.950;2023-07-22T15:47:27;1;1;
72908;PMS5003;61051;62.624;17.950;2023-07-22T15:49:56;1;1;
72908;PMS5003;61051;62.624;17.950;2023-07-22T15:52:25;1;1;
72908;PMS5003;61051;62.624;17.950;2023-07-22T15:54:53;1;1;
72908;PMS5003;61051;62.624;17.950;2023-07-22T15:57:21;2;2;
72908;PMS5003;61051;62.624;17.950;2023-07-22T15:59:49;1;1;
72908;PMS5003;61051;62.624;17.950;2023-07-22T16:04:13;1;1;
72908;PMS5003;61051;62.624;17.950;2023-07-22T16:06:42;1;1;
72908;PMS5003;61051;62.624;17.950;2023-07-22T16:09:10;1;1;
72908;PMS5003;61051;62.624;17.950;2023-07-22T16:11:38;0;0;
72908;PMS5003;61051;62.624;17.950;2023-07-22T16:14:06;0;0;
72908;PMS5003;61051;62.624;17.950;2023-07-22T16:16:34;1;1;
72908;PMS5003;61051;62.624;17.950;2023-07-22T16:19:02;0;0;
72908;PMS5003;61051;62.624;17.950;2023-07-22T16:21:30;1;1;
72908;PMS5003;61051;62.624;17.950;2023-07-22T16:23:58;1;1;
72908;PMS5003;61051;62.624;17.950;2023-07-22T16:26:26;0;0;
72908;PMS5003;61051;62.624;17.950;2023-07-22T16:28:54;0;0;
72908;PMS5003;61051;62.624;17.950;2023-07-22T16:31:22;1;1;
72908;PMS5003;61051;62.624;17.950;2023-07-22T16:33:50;1;1;
72908;PMS5003;61051;62.624;17.950;2023-07-22T16:36:18;1;1;
72908;PMS5003;61051;62.624;17.950;2023-07-22T16:38:46;1;0;
72908;PMS5003;61051;62.624;17.950;2023-07-22T16:41:14;0;0;
72908;PMS5003;61051;62.624;17.950;2023-07-22T16:43:42;1;1;
72908;PMS5003;61051;62.624;17.950;2023-07-22T16:46:10;1;1;
72908;PMS5003;61051;62.624;17.950;2023-07-22T16:48:38;1;1;
72908;PMS5003;61051;62.624;17.950;2023-07-22T16:51:07;1;1;
72908;PMS5003;61051;62.624;17.950;2023-07-22T16:53:36;1;1;